Pagrindinis puslapis
METAR-TAF:

METAR-TAF

Oro uostai :

Utti, Suomija

platuma: 60-54N, ilguma: 026-56E, Aukštis: 100 m

Dabartinis oras

Ataskaita buvo paskelbta 11 minutes, ne 03:50 UTC
Vėjas 11 kt iš Šiaurės Vakarų, svyruoja nuo Vakarų ir Šiaurės/Šiaurės Vakarų
Temperatūra -9°C
Drėgmė 79%
Slėgis 982 hPa
Matomumas 10 km arba daugiau
Su prošvaistėmis ne aukštis 1500 ft
sniegas

METAR: EFUT 010350Z AUTO 32011KT 280V340 9999 -SHSN BKN015 M09/M12 Q0982

Laikas: 06:01 (04:01 UTC)

Prognozė

Ataskaita buvo paskelbta 1 valandą ir 37 minutes, ne 02:24 UTC
Prognozė galioja nuo 01 metu 03 UTC su 01 metu 12 UTC
Vėjas 12 kt iš Šiaurės Vakarų
Matomumas: 5000 m
Su prošvaistėmis ne aukštis 2000 ft
sniegas
Laikinai
nuo 01 metu 03 UTC su 01 metu 05 UTC
Matomumas: 8000 m
Su prošvaistėmis ne aukštis 1200 ft
Tapsmas
nuo 01 metu 05 UTC su 01 metu 07 UTC
Matomumas 10 km arba daugiau

TAF: EFUT 010224Z 0103/0112 31012KT 5000 -SN BKN020 TEMPO 0103/0105 8000 BKN012 BECMG 0105/0107 9999

Orai ataskaitas ir orų prognozės (METAR, TAF).

turimą stotys yra geltonos ir raudonos taškus žemėlapyje.

Perkelti pele per norėdami pamatyti stoties vardą.

Tada spustelėkite, norėdami matyti oro stebėjimo ir prognozės.

Norėdami pakeisti žemėlapį: spustelėkite ant žalios mygtukų su juodo kryžiaus žemyn,; žalią mygtuką su brūkšneliu, jei norite nutolinti; arba žalių rodyklių gretimoms žemėlapius.


METAR-TAF: